sensor_id;sensor_type;location;lat;lon;timestamp;temperature;humidity
33460;DHT22;19795;53.160;6.612;2023-05-07T06:48:37;10.60;99.90
33460;DHT22;19795;53.160;6.612;2023-05-07T06:53:38;10.60;99.90
33460;DHT22;19795;53.160;6.612;2023-05-07T06:56:04;10.70;99.90
33460;DHT22;19795;53.160;6.612;2023-05-07T06:58:30;10.70;99.90
33460;DHT22;19795;53.160;6.612;2023-05-07T07:00:55;10.80;99.90
33460;DHT22;19795;53.160;6.612;2023-05-07T07:03:21;10.70;99.90
33460;DHT22;19795;53.160;6.612;2023-05-07T07:05:46;10.80;99.90
33460;DHT22;19795;53.160;6.612;2023-05-07T07:08:12;10.80;99.90
33460;DHT22;19795;53.160;6.612;2023-05-07T07:10:38;10.80;99.90
33460;DHT22;19795;53.160;6.612;2023-05-07T07:13:03;10.90;99.90
33460;DHT22;19795;53.160;6.612;2023-05-07T07:15:29;10.80;99.90
33460;DHT22;19795;53.160;6.612;2023-05-07T07:17:55;10.80;99.90
33460;DHT22;19795;53.160;6.612;2023-05-07T07:20:21;10.80;99.90
33460;DHT22;19795;53.160;6.612;2023-05-07T07:22:46;10.80;99.90
33460;DHT22;19795;53.160;6.612;2023-05-07T07:25:13;10.90;99.90
33460;DHT22;19795;53.160;6.612;2023-05-07T07:27:38;10.80;99.90
33460;DHT22;19795;53.160;6.612;2023-05-07T07:30:07;10.90;99.90
33460;DHT22;19795;53.160;6.612;2023-05-07T07:32:33;10.90;99.90
33460;DHT22;19795;53.160;6.612;2023-05-07T07:34:59;11.00;99.90
33460;DHT22;19795;53.160;6.612;2023-05-07T07:37:24;10.90;99.90
33460;DHT22;19795;53.160;6.612;2023-05-07T07:39:51;11.00;99.90
33460;DHT22;19795;53.160;6.612;2023-05-07T07:42:16;11.20;99.90
33460;DHT22;19795;53.160;6.612;2023-05-07T07:44:42;11.30;99.90
33460;DHT22;19795;53.160;6.612;2023-05-07T07:47:07;11.30;99.90
33460;DHT22;19795;53.160;6.612;2023-05-07T07:49:33;11.40;99.90
33460;DHT22;19795;53.160;6.612;2023-05-07T07:51:59;11.60;99.90
33460;DHT22;19795;53.160;6.612;2023-05-07T07:54:25;11.60;99.90
33460;DHT22;19795;53.160;6.612;2023-05-07T07:56:51;11.60;99.90
33460;DHT22;19795;53.160;6.612;2023-05-07T07:59:17;11.80;99.90
33460;DHT22;19795;53.160;6.612;2023-05-07T08:01:44;11.90;99.90
33460;DHT22;19795;53.160;6.612;2023-05-07T08:04:10;11.90;99.90
33460;DHT22;19795;53.160;6.612;2023-05-07T08:06:36;11.90;99.90
33460;DHT22;19795;53.160;6.612;2023-05-07T08:09:01;11.90;99.90
33460;DHT22;19795;53.160;6.612;2023-05-07T08:11:28;12.00;99.90
33460;DHT22;19795;53.160;6.612;2023-05-07T08:13:54;12.00;99.90
33460;DHT22;19795;53.160;6.612;2023-05-07T08:16:20;12.10;99.90
33460;DHT22;19795;53.160;6.612;2023-05-07T08:18:46;12.50;99.90
33460;DHT22;19795;53.160;6.612;2023-05-07T08:21:11;12.60;99.90
33460;DHT22;19795;53.160;6.612;2023-05-07T08:23:37;12.90;99.90
33460;DHT22;19795;53.160;6.612;2023-05-07T08:26:03;13.20;99.90
33460;DHT22;19795;53.160;6.612;2023-05-07T08:28:28;12.90;99.90
33460;DHT22;19795;53.160;6.612;2023-05-07T08:30:54;12.70;99.90
33460;DHT22;19795;53.160;6.612;2023-05-07T08:33:21;12.50;99.90
33460;DHT22;19795;53.160;6.612;2023-05-07T08:35:47;12.40;99.90
33460;DHT22;19795;53.160;6.612;2023-05-07T08:38:13;12.40;99.90
33460;DHT22;19795;53.160;6.612;2023-05-07T08:40:39;12.70;99.90
33460;DHT22;19795;53.160;6.612;2023-05-07T08:43:06;12.60;99.90
33460;DHT22;19795;53.160;6.612;2023-05-07T08:45:33;12.40;99.90
33460;DHT22;19795;53.160;6.612;2023-05-07T08:48:01;12.50;99.90
33460;DHT22;19795;53.160;6.612;2023-05-07T08:50:27;12.60;99.90
33460;DHT22;19795;53.160;6.612;2023-05-07T08:52:53;12.70;99.90
33460;DHT22;19795;53.160;6.612;2023-05-07T08:55:20;12.70;99.90
33460;DHT22;19795;53.160;6.612;2023-05-07T08:57:45;12.50;99.90
33460;DHT22;19795;53.160;6.612;2023-05-07T09:00:12;12.50;99.90
33460;DHT22;19795;53.160;6.612;2023-05-07T09:02:38;12.90;99.90
33460;DHT22;19795;53.160;6.612;2023-05-07T09:05:04;13.20;99.90
33460;DHT22;19795;53.160;6.612;2023-05-07T09:07:30;13.50;99.90
33460;DHT22;19795;53.160;6.612;2023-05-07T09:09:56;13.50;99.90
33460;DHT22;19795;53.160;6.612;2023-05-07T09:12:22;13.20;99.90
33460;DHT22;19795;53.160;6.612;2023-05-07T09:14:49;13.30;99.90
33460;DHT22;19795;53.160;6.612;2023-05-07T09:17:21;13.60;99.90
33460;DHT22;19795;53.160;6.612;2023-05-07T09:19:46;13.30;99.90
33460;DHT22;19795;53.160;6.612;2023-05-07T09:22:13;13.10;99.90
33460;DHT22;19795;53.160;6.612;2023-05-07T09:24:38;13.10;99.90
33460;DHT22;19795;53.160;6.612;2023-05-07T09:27:07;13.30;99.90
33460;DHT22;19795;53.160;6.612;2023-05-07T09:29:35;13.10;99.90
33460;DHT22;19795;53.160;6.612;2023-05-07T09:32:05;13.20;99.90
33460;DHT22;19795;53.160;6.612;2023-05-07T09:34:31;13.00;99.90
33460;DHT22;19795;53.160;6.612;2023-05-07T09:37:00;13.60;99.90
33460;DHT22;19795;53.160;6.612;2023-05-07T09:39:26;14.10;99.90
33460;DHT22;19795;53.160;6.612;2023-05-07T09:41:51;14.00;99.90
33460;DHT22;19795;53.160;6.612;2023-05-07T09:44:20;14.10;99.90
33460;DHT22;19795;53.160;6.612;2023-05-07T09:46:49;14.50;99.90
33460;DHT22;19795;53.160;6.612;2023-05-07T09:49:22;14.70;99.90
33460;DHT22;19795;53.160;6.612;2023-05-07T09:51:48;14.90;99.90
33460;DHT22;19795;53.160;6.612;2023-05-07T09:54:15;15.40;99.90
33460;DHT22;19795;53.160;6.612;2023-05-07T09:56:45;15.30;99.90
33460;DHT22;19795;53.160;6.612;2023-05-07T09:59:14;14.70;99.90
33460;DHT22;19795;53.160;6.612;2023-05-07T10:01:42;14.40;99.90
33460;DHT22;19795;53.160;6.612;2023-05-07T10:04:11;14.60;99.90
33460;DHT22;19795;53.160;6.612;2023-05-07T10:06:37;14.40;99.90
33460;DHT22;19795;53.160;6.612;2023-05-07T10:09:04;14.10;99.90
33460;DHT22;19795;53.160;6.612;2023-05-07T10:11:33;13.80;99.90
33460;DHT22;19795;53.160;6.612;2023-05-07T10:14:00;14.00;99.90
33460;DHT22;19795;53.160;6.612;2023-05-07T10:16:31;13.90;99.90
33460;DHT22;19795;53.160;6.612;2023-05-07T10:18:58;14.20;99.90
33460;DHT22;19795;53.160;6.612;2023-05-07T10:21:26;14.10;99.90
33460;DHT22;19795;53.160;6.612;2023-05-07T10:26:36;14.50;99.90
33460;DHT22;19795;53.160;6.612;2023-05-07T10:29:07;13.90;99.90
33460;DHT22;19795;53.160;6.612;2023-05-07T10:34:36;13.90;99.90
33460;DHT22;19795;53.160;6.612;2023-05-07T10:37:04;14.40;99.90
33460;DHT22;19795;53.160;6.612;2023-05-07T10:39:30;14.40;99.90
33460;DHT22;19795;53.160;6.612;2023-05-07T10:41:56;14.50;99.90
33460;DHT22;19795;53.160;6.612;2023-05-07T10:44:29;14.60;99.90
33460;DHT22;19795;53.160;6.612;2023-05-07T10:47:09;15.20;99.90
33460;DHT22;19795;53.160;6.612;2023-05-07T10:54:42;15.60;99.90
33460;DHT22;19795;53.160;6.612;2023-05-07T10:57:36;16.10;99.90
33460;DHT22;19795;53.160;6.612;2023-05-07T11:00:03;15.60;99.90
33460;DHT22;19795;53.160;6.612;2023-05-07T11:05:28;15.70;99.90
33460;DHT22;19795;53.160;6.612;2023-05-07T11:08:02;16.00;99.90
33460;DHT22;19795;53.160;6.612;2023-05-07T11:10:53;15.60;99.90
33460;DHT22;19795;53.160;6.612;2023-05-07T11:13:45;15.80;99.90
33460;DHT22;19795;53.160;6.612;2023-05-07T11:16:37;15.80;99.90
33460;DHT22;19795;53.160;6.612;2023-05-07T11:19:04;15.40;99.90
33460;DHT22;19795;53.160;6.612;2023-05-07T11:21:40;16.20;99.90
33460;DHT22;19795;53.160;6.612;2023-05-07T11:24:07;16.30;99.90
33460;DHT22;19795;53.160;6.612;2023-05-07T11:26:44;16.50;99.90
33460;DHT22;19795;53.160;6.612;2023-05-07T11:29:12;16.20;99.80
33460;DHT22;19795;53.160;6.612;2023-05-07T11:31:38;16.20;99.90
33460;DHT22;19795;53.160;6.612;2023-05-07T11:34:04;16.50;97.70
33460;DHT22;19795;53.160;6.612;2023-05-07T11:36:32;16.30;92.70
33460;DHT22;19795;53.160;6.612;2023-05-07T11:38:58;16.40;97.00
33460;DHT22;19795;53.160;6.612;2023-05-07T11:41:33;17.20;99.90
33460;DHT22;19795;53.160;6.612;2023-05-07T11:44:00;17.60;48.00
33460;DHT22;19795;53.160;6.612;2023-05-07T11:46:27;16.50;99.90
33460;DHT22;19795;53.160;6.612;2023-05-07T11:48:53;17.30;90.50
33460;DHT22;19795;53.160;6.612;2023-05-07T11:51:20;17.70;90.20
33460;DHT22;19795;53.160;6.612;2023-05-07T11:53:46;17.70;83.30
33460;DHT22;19795;53.160;6.612;2023-05-07T11:56:13;17.70;40.20
33460;DHT22;19795;53.160;6.612;2023-05-07T11:58:40;17.80;94.60
33460;DHT22;19795;53.160;6.612;2023-05-07T12:01:10;18.50;26.20
33460;DHT22;19795;53.160;6.612;2023-05-07T12:03:37;18.20;1.00
33460;DHT22;19795;53.160;6.612;2023-05-07T12:06:05;17.30;89.20
33460;DHT22;19795;53.160;6.612;2023-05-07T12:08:31;17.90;45.70
33460;DHT22;19795;53.160;6.612;2023-05-07T12:10:57;17.70;26.00
33460;DHT22;19795;53.160;6.612;2023-05-07T12:13:26;18.30;32.90
33460;DHT22;19795;53.160;6.612;2023-05-07T12:15:52;17.80;56.10
33460;DHT22;19795;53.160;6.612;2023-05-07T12:18:18;18.00;79.60
33460;DHT22;19795;53.160;6.612;2023-05-07T12:20:45;19.00;1.00
33460;DHT22;19795;53.160;6.612;2023-05-07T12:23:11;18.20;18.20
33460;DHT22;19795;53.160;6.612;2023-05-07T12:25:38;18.60;51.60
33460;DHT22;19795;53.160;6.612;2023-05-07T12:28:05;18.10;1.00
33460;DHT22;19795;53.160;6.612;2023-05-07T12:30:38;18.40;39.70
33460;DHT22;19795;53.160;6.612;2023-05-07T12:33:04;18.80;6.40
33460;DHT22;19795;53.160;6.612;2023-05-07T12:35:39;18.80;1.00
33460;DHT22;19795;53.160;6.612;2023-05-07T12:38:13;19.60;1.00
33460;DHT22;19795;53.160;6.612;2023-05-07T12:40:46;17.80;4.70
33460;DHT22;19795;53.160;6.612;2023-05-07T12:45:47;17.60;13.40
33460;DHT22;19795;53.160;6.612;2023-05-07T12:48:13;17.10;71.80
33460;DHT22;19795;53.160;6.612;2023-05-07T12:50:39;17.40;64.40
33460;DHT22;19795;53.160;6.612;2023-05-07T12:53:06;17.80;8.60
33460;DHT22;19795;53.160;6.612;2023-05-07T12:55:44;18.50;11.90
33460;DHT22;19795;53.160;6.612;2023-05-07T12:58:20;18.50;1.00
33460;DHT22;19795;53.160;6.612;2023-05-07T13:00:51;18.10;43.60
33460;DHT22;19795;53.160;6.612;2023-05-07T13:03:37;18.10;12.40
33460;DHT22;19795;53.160;6.612;2023-05-07T13:06:06;18.30;48.60
33460;DHT22;19795;53.160;6.612;2023-05-07T13:08:32;18.70;66.50
33460;DHT22;19795;53.160;6.612;2023-05-07T13:10:59;18.90;1.00
33460;DHT22;19795;53.160;6.612;2023-05-07T13:13:31;18.50;1.00
33460;DHT22;19795;53.160;6.612;2023-05-07T13:15:57;18.90;32.50
33460;DHT22;19795;53.160;6.612;2023-05-07T13:18:25;19.30;1.00
33460;DHT22;19795;53.160;6.612;2023-05-07T13:20:51;19.90;1.00
33460;DHT22;19795;53.160;6.612;2023-05-07T13:23:17;19.50;1.00
33460;DHT22;19795;53.160;6.612;2023-05-07T13:25:42;18.80;1.00
33460;DHT22;19795;53.160;6.612;2023-05-07T13:28:08;19.30;1.00
33460;DHT22;19795;53.160;6.612;2023-05-07T13:30:34;19.80;99.90
33460;DHT22;19795;53.160;6.612;2023-05-07T13:33:00;19.30;1.00
33460;DHT22;19795;53.160;6.612;2023-05-07T13:35:26;19.10;1.00
33460;DHT22;19795;53.160;6.612;2023-05-07T13:37:52;19.40;1.00
33460;DHT22;19795;53.160;6.612;2023-05-07T13:40:18;19.00;1.00
33460;DHT22;19795;53.160;6.612;2023-05-07T13:42:44;19.00;1.00
33460;DHT22;19795;53.160;6.612;2023-05-07T13:45:10;18.90;1.00
33460;DHT22;19795;53.160;6.612;2023-05-07T13:47:42;19.40;1.00
33460;DHT22;19795;53.160;6.612;2023-05-07T13:50:09;19.30;1.00
33460;DHT22;19795;53.160;6.612;2023-05-07T13:52:37;19.60;1.00
33460;DHT22;19795;53.160;6.612;2023-05-07T13:55:03;20.60;1.00
33460;DHT22;19795;53.160;6.612;2023-05-07T13:57:29;19.80;99.90
33460;DHT22;19795;53.160;6.612;2023-05-07T13:59:54;19.20;99.90
33460;DHT22;19795;53.160;6.612;2023-05-07T14:02:23;19.10;1.00
33460;DHT22;19795;53.160;6.612;2023-05-07T14:04:49;19.80;1.00
33460;DHT22;19795;53.160;6.612;2023-05-07T14:07:15;20.40;99.90
33460;DHT22;19795;53.160;6.612;2023-05-07T14:09:40;19.80;99.90
33460;DHT22;19795;53.160;6.612;2023-05-07T14:12:06;19.40;1.00
33460;DHT22;19795;53.160;6.612;2023-05-07T14:14:32;19.10;1.00
33460;DHT22;19795;53.160;6.612;2023-05-07T14:16:57;20.00;1.00
33460;DHT22;19795;53.160;6.612;2023-05-07T14:19:23;20.20;99.90
33460;DHT22;19795;53.160;6.612;2023-05-07T14:21:49;20.30;1.00
33460;DHT22;19795;53.160;6.612;2023-05-07T14:24:14;19.90;99.90
33460;DHT22;19795;53.160;6.612;2023-05-07T14:26:40;19.60;1.00
33460;DHT22;19795;53.160;6.612;2023-05-07T14:29:06;19.80;1.00
33460;DHT22;19795;53.160;6.612;2023-05-07T14:31:31;19.40;1.00
33460;DHT22;19795;53.160;6.612;2023-05-07T14:33:58;19.30;1.00
33460;DHT22;19795;53.160;6.612;2023-05-07T14:36:24;19.10;1.00
33460;DHT22;19795;53.160;6.612;2023-05-07T14:38:52;19.20;1.00
33460;DHT22;19795;53.160;6.612;2023-05-07T14:41:19;19.50;1.00
33460;DHT22;19795;53.160;6.612;2023-05-07T14:43:46;19.50;1.00
33460;DHT22;19795;53.160;6.612;2023-05-07T14:46:16;19.20;1.00
33460;DHT22;19795;53.160;6.612;2023-05-07T14:48:43;19.40;1.00
33460;DHT22;19795;53.160;6.612;2023-05-07T14:51:10;19.60;1.00
33460;DHT22;19795;53.160;6.612;2023-05-07T14:53:36;19.00;1.00
33460;DHT22;19795;53.160;6.612;2023-05-07T14:56:01;18.70;1.00
33460;DHT22;19795;53.160;6.612;2023-05-07T14:58:28;18.60;1.00
33460;DHT22;19795;53.160;6.612;2023-05-07T15:00:54;18.90;9.90
33460;DHT22;19795;53.160;6.612;2023-05-07T15:03:20;19.00;1.00
33460;DHT22;19795;53.160;6.612;2023-05-07T15:05:47;18.90;1.00
33460;DHT22;19795;53.160;6.612;2023-05-07T15:08:12;18.90;1.00
33460;DHT22;19795;53.160;6.612;2023-05-07T15:10:38;19.10;1.00
33460;DHT22;19795;53.160;6.612;2023-05-07T15:13:07;19.30;1.00
33460;DHT22;19795;53.160;6.612;2023-05-07T15:15:33;19.30;1.00
33460;DHT22;19795;53.160;6.612;2023-05-07T15:17:59;18.80;1.00
33460;DHT22;19795;53.160;6.612;2023-05-07T15:20:27;19.10;1.00
33460;DHT22;19795;53.160;6.612;2023-05-07T15:22:53;19.30;1.00
33460;DHT22;19795;53.160;6.612;2023-05-07T15:25:18;19.00;1.00
33460;DHT22;19795;53.160;6.612;2023-05-07T15:27:44;19.10;1.00
33460;DHT22;19795;53.160;6.612;2023-05-07T15:30:10;18.80;1.00
33460;DHT22;19795;53.160;6.612;2023-05-07T15:32:37;19.10;1.00
33460;DHT22;19795;53.160;6.612;2023-05-07T15:35:04;19.20;1.00
33460;DHT22;19795;53.160;6.612;2023-05-07T15:37:33;18.80;1.00
33460;DHT22;19795;53.160;6.612;2023-05-07T15:39:59;18.80;1.00
33460;DHT22;19795;53.160;6.612;2023-05-07T15:42:27;19.00;1.00
33460;DHT22;19795;53.160;6.612;2023-05-07T15:44:53;19.00;1.00
33460;DHT22;19795;53.160;6.612;2023-05-07T15:47:19;18.90;1.00
33460;DHT22;19795;53.160;6.612;2023-05-07T15:49:44;19.30;1.00
33460;DHT22;19795;53.160;6.612;2023-05-07T15:52:10;19.60;1.00
33460;DHT22;19795;53.160;6.612;2023-05-07T15:54:36;19.10;99.90
33460;DHT22;19795;53.160;6.612;2023-05-07T15:57:05;19.10;99.90
33460;DHT22;19795;53.160;6.612;2023-05-07T15:59:31;19.20;1.00
33460;DHT22;19795;53.160;6.612;2023-05-07T16:01:57;19.20;99.90
33460;DHT22;19795;53.160;6.612;2023-05-07T16:04:23;19.20;1.00
33460;DHT22;19795;53.160;6.612;2023-05-07T16:06:49;19.40;1.00
33460;DHT22;19795;53.160;6.612;2023-05-07T16:09:14;19.50;99.90
33460;DHT22;19795;53.160;6.612;2023-05-07T16:11:41;19.30;1.00
33460;DHT22;19795;53.160;6.612;2023-05-07T16:14:06;19.00;1.00
33460;DHT22;19795;53.160;6.612;2023-05-07T16:16:33;18.90;1.00
33460;DHT22;19795;53.160;6.612;2023-05-07T16:18:59;18.80;1.00
33460;DHT22;19795;53.160;6.612;2023-05-07T16:21:25;19.10;1.00
33460;DHT22;19795;53.160;6.612;2023-05-07T16:23:51;19.10;1.00
33460;DHT22;19795;53.160;6.612;2023-05-07T16:26:17;19.30;99.90
33460;DHT22;19795;53.160;6.612;2023-05-07T16:28:43;19.00;1.00
33460;DHT22;19795;53.160;6.612;2023-05-07T16:31:09;18.80;1.00
33460;DHT22;19795;53.160;6.612;2023-05-07T16:33:35;18.50;1.00
33460;DHT22;19795;53.160;6.612;2023-05-07T16:36:01;18.40;1.00
33460;DHT22;19795;53.160;6.612;2023-05-07T16:38:27;18.30;1.00
33460;DHT22;19795;53.160;6.612;2023-05-07T16:41:00;18.30;1.00
33460;DHT22;19795;53.160;6.612;2023-05-07T16:43:26;18.20;1.00
33460;DHT22;19795;53.160;6.612;2023-05-07T16:45:51;18.10;1.00
33460;DHT22;19795;53.160;6.612;2023-05-07T16:48:17;18.10;1.00
33460;DHT22;19795;53.160;6.612;2023-05-07T16:50:43;18.10;1.00
33460;DHT22;19795;53.160;6.612;2023-05-07T16:53:10;17.90;1.00
33460;DHT22;19795;53.160;6.612;2023-05-07T16:55:39;17.80;1.00
33460;DHT22;19795;53.160;6.612;2023-05-07T16:58:06;17.70;1.00
33460;DHT22;19795;53.160;6.612;2023-05-07T17:00:32;17.80;14.00
33460;DHT22;19795;53.160;6.612;2023-05-07T17:02:58;18.10;3.20
33460;DHT22;19795;53.160;6.612;2023-05-07T17:05:25;18.80;1.00
33460;DHT22;19795;53.160;6.612;2023-05-07T17:07:52;19.30;99.90
33460;DHT22;19795;53.160;6.612;2023-05-07T17:10:18;19.10;99.90
33460;DHT22;19795;53.160;6.612;2023-05-07T17:12:45;18.70;1.00
33460;DHT22;19795;53.160;6.612;2023-05-07T17:15:11;18.70;99.90
33460;DHT22;19795;53.160;6.612;2023-05-07T17:17:36;18.30;1.00
33460;DHT22;19795;53.160;6.612;2023-05-07T17:20:05;18.10;1.00
33460;DHT22;19795;53.160;6.612;2023-05-07T17:22:31;17.70;1.00
33460;DHT22;19795;53.160;6.612;2023-05-07T17:24:57;17.50;1.00
33460;DHT22;19795;53.160;6.612;2023-05-07T17:27:23;17.40;15.10
33460;DHT22;19795;53.160;6.612;2023-05-07T17:29:49;17.40;19.80
33460;DHT22;19795;53.160;6.612;2023-05-07T17:32:14;17.30;1.00
33460;DHT22;19795;53.160;6.612;2023-05-07T17:34:40;17.30;1.00
33460;DHT22;19795;53.160;6.612;2023-05-07T17:37:06;17.20;18.50
33460;DHT22;19795;53.160;6.612;2023-05-07T17:39:32;16.90;18.50
33460;DHT22;19795;53.160;6.612;2023-05-07T17:41:57;16.90;56.90
33460;DHT22;19795;53.160;6.612;2023-05-07T17:44:23;16.80;39.20
33460;DHT22;19795;53.160;6.612;2023-05-07T17:46:49;16.70;58.50
33460;DHT22;19795;53.160;6.612;2023-05-07T17:49:15;16.70;59.80
33460;DHT22;19795;53.160;6.612;2023-05-07T17:51:41;16.60;70.00
33460;DHT22;19795;53.160;6.612;2023-05-07T17:54:06;16.60;77.80
33460;DHT22;19795;53.160;6.612;2023-05-07T17:56:32;16.60;88.10
33460;DHT22;19795;53.160;6.612;2023-05-07T17:58:58;16.70;69.50
33460;DHT22;19795;53.160;6.612;2023-05-07T18:01:23;16.60;68.90
33460;DHT22;19795;53.160;6.612;2023-05-07T18:03:49;16.30;92.30
33460;DHT22;19795;53.160;6.612;2023-05-07T18:06:15;16.20;95.40
33460;DHT22;19795;53.160;6.612;2023-05-07T18:08:46;16.10;96.20
33460;DHT22;19795;53.160;6.612;2023-05-07T18:11:12;16.00;99.90
33460;DHT22;19795;53.160;6.612;2023-05-07T18:13:38;15.90;99.90
33460;DHT22;19795;53.160;6.612;2023-05-07T18:16:04;15.90;99.90
33460;DHT22;19795;53.160;6.612;2023-05-07T18:18:29;15.80;99.90
33460;DHT22;19795;53.160;6.612;2023-05-07T18:20:56;15.80;99.90
33460;DHT22;19795;53.160;6.612;2023-05-07T18:23:22;15.60;99.90
33460;DHT22;19795;53.160;6.612;2023-05-07T18:25:48;15.60;99.90
33460;DHT22;19795;53.160;6.612;2023-05-07T18:28:14;15.50;99.90
33460;DHT22;19795;53.160;6.612;2023-05-07T18:30:39;15.50;99.90
33460;DHT22;19795;53.160;6.612;2023-05-07T18:33:05;15.40;99.90
33460;DHT22;19795;53.160;6.612;2023-05-07T18:35:31;15.30;99.90
33460;DHT22;19795;53.160;6.612;2023-05-07T18:37:57;15.30;99.90
33460;DHT22;19795;53.160;6.612;2023-05-07T18:40:23;15.30;99.90
33460;DHT22;19795;53.160;6.612;2023-05-07T18:42:49;15.20;99.90
33460;DHT22;19795;53.160;6.612;2023-05-07T18:45:14;15.10;99.90
33460;DHT22;19795;53.160;6.612;2023-05-07T18:47:40;15.10;99.90
33460;DHT22;19795;53.160;6.612;2023-05-07T18:50:06;15.10;99.90
33460;DHT22;19795;53.160;6.612;2023-05-07T18:52:31;15.00;99.90
33460;DHT22;19795;53.160;6.612;2023-05-07T18:54:57;15.00;99.90
33460;DHT22;19795;53.160;6.612;2023-05-07T18:57:23;14.90;99.90
33460;DHT22;19795;53.160;6.612;2023-05-07T18:59:51;14.90;99.90
33460;DHT22;19795;53.160;6.612;2023-05-07T19:02:17;14.80;99.90
33460;DHT22;19795;53.160;6.612;2023-05-07T19:04:43;14.80;99.90
33460;DHT22;19795;53.160;6.612;2023-05-07T19:07:09;14.70;99.90
33460;DHT22;19795;53.160;6.612;2023-05-07T19:09:34;14.70;99.90
33460;DHT22;19795;53.160;6.612;2023-05-07T19:12:00;14.60;99.90
33460;DHT22;19795;53.160;6.612;2023-05-07T19:14:26;14.60;99.90
33460;DHT22;19795;53.160;6.612;2023-05-07T19:16:52;14.50;99.90
33460;DHT22;19795;53.160;6.612;2023-05-07T19:19:17;14.50;99.90
33460;DHT22;19795;53.160;6.612;2023-05-07T19:21:43;14.50;99.90
33460;DHT22;19795;53.160;6.612;2023-05-07T19:24:09;14.40;99.90
33460;DHT22;19795;53.160;6.612;2023-05-07T19:26:35;14.30;99.90
33460;DHT22;19795;53.160;6.612;2023-05-07T19:29:00;14.30;99.90
33460;DHT22;19795;53.160;6.612;2023-05-07T19:31:26;14.20;99.90
33460;DHT22;19795;53.160;6.612;2023-05-07T19:33:52;14.20;99.90
33460;DHT22;19795;53.160;6.612;2023-05-07T19:36:22;14.20;99.90
33460;DHT22;19795;53.160;6.612;2023-05-07T19:38:51;14.10;99.90
33460;DHT22;19795;53.160;6.612;2023-05-07T19:41:22;14.00;99.90
33460;DHT22;19795;53.160;6.612;2023-05-07T19:43:48;13.90;99.90
33460;DHT22;19795;53.160;6.612;2023-05-07T19:46:14;13.90;99.90
33460;DHT22;19795;53.160;6.612;2023-05-07T19:48:42;13.80;99.90
33460;DHT22;19795;53.160;6.612;2023-05-07T19:51:09;13.80;99.90
33460;DHT22;19795;53.160;6.612;2023-05-07T19:53:35;13.70;99.90
33460;DHT22;19795;53.160;6.612;2023-05-07T19:56:06;13.70;99.90
33460;DHT22;19795;53.160;6.612;2023-05-07T19:58:33;13.70;99.90
33460;DHT22;19795;53.160;6.612;2023-05-07T20:00:59;13.60;99.90
33460;DHT22;19795;53.160;6.612;2023-05-07T20:03:29;13.60;99.90
33460;DHT22;19795;53.160;6.612;2023-05-07T20:06:15;13.50;99.90
33460;DHT22;19795;53.160;6.612;2023-05-07T20:08:41;13.60;99.90
33460;DHT22;19795;53.160;6.612;2023-05-07T20:11:12;13.60;99.90
33460;DHT22;19795;53.160;6.612;2023-05-07T20:13:38;13.50;99.90
33460;DHT22;19795;53.160;6.612;2023-05-07T20:16:04;13.40;99.90
33460;DHT22;19795;53.160;6.612;2023-05-07T20:18:30;13.40;99.90
33460;DHT22;19795;53.160;6.612;2023-05-07T20:20:56;13.30;99.90
33460;DHT22;19795;53.160;6.612;2023-05-07T20:23:21;13.30;99.90
33460;DHT22;19795;53.160;6.612;2023-05-07T20:25:47;13.30;99.90
33460;DHT22;19795;53.160;6.612;2023-05-07T20:28:14;13.30;99.90
33460;DHT22;19795;53.160;6.612;2023-05-07T20:30:40;13.20;99.90
33460;DHT22;19795;53.160;6.612;2023-05-07T20:33:05;13.10;99.90
33460;DHT22;19795;53.160;6.612;2023-05-07T20:35:32;13.10;99.90
33460;DHT22;19795;53.160;6.612;2023-05-07T20:37:58;13.00;99.90
33460;DHT22;19795;53.160;6.612;2023-05-07T20:40:24;12.90;99.90
33460;DHT22;19795;53.160;6.612;2023-05-07T20:42:51;12.90;99.90
33460;DHT22;19795;53.160;6.612;2023-05-07T20:45:16;12.90;99.90
33460;DHT22;19795;53.160;6.612;2023-05-07T20:47:42;12.80;99.90
33460;DHT22;19795;53.160;6.612;2023-05-07T20:50:08;12.80;99.90
33460;DHT22;19795;53.160;6.612;2023-05-07T20:52:34;12.80;99.90
33460;DHT22;19795;53.160;6.612;2023-05-07T20:55:00;12.70;99.90
33460;DHT22;19795;53.160;6.612;2023-05-07T20:57:26;12.70;99.90
33460;DHT22;19795;53.160;6.612;2023-05-07T20:59:51;12.70;99.90
33460;DHT22;19795;53.160;6.612;2023-05-07T21:02:17;12.70;99.90
33460;DHT22;19795;53.160;6.612;2023-05-07T21:04:43;12.70;99.90
33460;DHT22;19795;53.160;6.612;2023-05-07T21:07:08;12.60;99.90
33460;DHT22;19795;53.160;6.612;2023-05-07T21:09:34;12.60;99.90
33460;DHT22;19795;53.160;6.612;2023-05-07T21:12:00;12.50;99.90
33460;DHT22;19795;53.160;6.612;2023-05-07T21:14:26;12.50;99.90
33460;DHT22;19795;53.160;6.612;2023-05-07T21:16:51;12.50;99.90
33460;DHT22;19795;53.160;6.612;2023-05-07T21:19:17;12.50;99.90
33460;DHT22;19795;53.160;6.612;2023-05-07T21:21:43;12.40;99.90
33460;DHT22;19795;53.160;6.612;2023-05-07T21:24:08;12.40;99.90
33460;DHT22;19795;53.160;6.612;2023-05-07T21:26:34;12.30;99.90
33460;DHT22;19795;53.160;6.612;2023-05-07T21:29:00;12.30;99.90
33460;DHT22;19795;53.160;6.612;2023-05-07T21:31:25;12.30;99.90
33460;DHT22;19795;53.160;6.612;2023-05-07T21:33:51;12.30;99.90
33460;DHT22;19795;53.160;6.612;2023-05-07T21:36:18;12.20;99.90
33460;DHT22;19795;53.160;6.612;2023-05-07T21:38:43;12.20;99.90
33460;DHT22;19795;53.160;6.612;2023-05-07T21:41:10;12.20;99.90
33460;DHT22;19795;53.160;6.612;2023-05-07T21:43:36;12.10;99.90
